Flugplatz Unterschüpf

Für EDGU sind keine METAR/TAF Berichte vorhanden.
Es werden die Flugwettermeldungen vom Flugplatz Niederstetten Airport in 25 km Entfernung angezeigt.

Bericht für ETHN

vom 28.02. um 02:20 UTC

Wind 14 kt aus 290°

Sichtweite 10 km oder mehr

gering bewölkt in 400 ft

aufgebrochene Bewölkung in 900 ft

Temperatur 0.0°C

Taupunkt -1.0°C

Luftfeuchtigkeit 93%

Luftdruck 1011 hPa

ETHN 280220Z 29014KT 9999 FEW004 BKN009 M00/M01 Q1011 GRN
Keine Prognose (TAF) verfügbar.
Impressum